NKS657 KFLL-KMSY
Flight info
| Callsign | NKS657 |
|---|---|
| Flight time | 2h 8m |
| Altitude | 36000 |
| Route | BNICE2 DOLIE Y280 REDFN Q105 HRV |
| Aircraft | A20N/M-SDE2E3FGHIRWXY/LB1 |
Departure
| Time | 2026-05-06 05:42 |
|---|---|
| Airport | Fort Lauderdale Hollywood International Airport (KFLL) |
Arrival
| Time | 2026-05-06 07:50 |
|---|---|
| Airport | Louis Armstrong New Orleans International Airport (KMSY) |
| Time | Latitude | Longitude | Altitude | Speed | Heading |
|---|---|---|---|---|---|
| 2026-05-06 05:17 | 26.07047 | -80.14625 | 9 ft | 0 kts | 359° |
| 2026-05-06 05:33 | 26.07044 | -80.14625 | 10 ft | 2 kts | 0° |
| 2026-05-06 05:33 | 26.07029 | -80.14625 | 10 ft | 2 kts | 2° |
| 2026-05-06 05:34 | 26.07016 | -80.14625 | 10 ft | 0 kts | 2° |
| 2026-05-06 05:34 | 26.07011 | -80.14626 | 10 ft | 0 kts | 319° |
| 2026-05-06 05:34 | 26.07008 | -80.14621 | 10 ft | 1 kts | 265° |
| 2026-05-06 05:34 | 26.07010 | -80.14606 | 10 ft | 1 kts | 274° |
| 2026-05-06 05:35 | 26.07009 | -80.14599 | 10 ft | 1 kts | 271° |
| 2026-05-06 05:35 | 26.07009 | -80.14598 | 9 ft | 0 kts | 271° |
| 2026-05-06 05:36 | 26.07009 | -80.14599 | 9 ft | 0 kts | 271° |
| 2026-05-06 05:36 | 26.07019 | -80.14661 | 9 ft | 14 kts | 288° |
| 2026-05-06 05:37 | 26.07019 | -80.14704 | 9 ft | 6 kts | 268° |
| 2026-05-06 05:37 | 26.07050 | -80.14805 | 9 ft | 12 kts | 317° |
| 2026-05-06 05:37 | 26.07124 | -80.14851 | 9 ft | 13 kts | 4° |
| 2026-05-06 05:37 | 26.07229 | -80.14848 | 9 ft | 16 kts | 1° |
| 2026-05-06 05:38 | 26.07343 | -80.14853 | 9 ft | 13 kts | 354° |
| 2026-05-06 05:38 | 26.07388 | -80.14932 | 9 ft | 13 kts | 308° |
| 2026-05-06 05:38 | 26.07462 | -80.15013 | 9 ft | 16 kts | 317° |
| 2026-05-06 05:38 | 26.07547 | -80.15111 | 9 ft | 18 kts | 303° |
| 2026-05-06 05:39 | 26.07563 | -80.15258 | 10 ft | 20 kts | 275° |
| 2026-05-06 05:39 | 26.07569 | -80.15422 | 9 ft | 22 kts | 272° |
| 2026-05-06 05:39 | 26.07567 | -80.15600 | 9 ft | 23 kts | 272° |
| 2026-05-06 05:39 | 26.07558 | -80.15788 | 10 ft | 25 kts | 265° |
| 2026-05-06 05:40 | 26.07558 | -80.15939 | 9 ft | 19 kts | 272° |
| 2026-05-06 05:40 | 26.07570 | -80.16100 | 9 ft | 23 kts | 274° |
| 2026-05-06 05:40 | 26.07569 | -80.16293 | 9 ft | 25 kts | 269° |
| 2026-05-06 05:40 | 26.07570 | -80.16477 | 9 ft | 22 kts | 272° |
| 2026-05-06 05:41 | 26.07668 | -80.16557 | 9 ft | 20 kts | 23° |
| 2026-05-06 05:41 | 26.07698 | -80.16420 | 9 ft | 20 kts | 91° |
| 2026-05-06 05:41 | 26.07694 | -80.16000 | 10 ft | 91 kts | 91° |
| 2026-05-06 05:41 | 26.07685 | -80.15044 | 18 ft | 151 kts | 91° |
| 2026-05-06 05:42 | 26.07678 | -80.13863 | 567 ft | 155 kts | 90° |
| 2026-05-06 05:42 | 26.07799 | -80.12671 | 1224 ft | 158 kts | 73° |
| 2026-05-06 05:42 | 26.08007 | -80.11487 | 1940 ft | 158 kts | 84° |
| 2026-05-06 05:42 | 26.08215 | -80.10292 | 2505 ft | 167 kts | 60° |
| 2026-05-06 05:43 | 26.09114 | -80.09367 | 2938 ft | 185 kts | 31° |
| 2026-05-06 05:43 | 26.10291 | -80.08617 | 3325 ft | 207 kts | 30° |
| 2026-05-06 05:43 | 26.11556 | -80.07749 | 3814 ft | 225 kts | 33° |
| 2026-05-06 05:43 | 26.12880 | -80.06728 | 4331 ft | 243 kts | 36° |
| 2026-05-06 05:44 | 26.14315 | -80.05589 | 4854 ft | 261 kts | 29° |
| 2026-05-06 05:44 | 26.16060 | -80.05040 | 5497 ft | 271 kts | 359° |
| 2026-05-06 05:44 | 26.17878 | -80.05473 | 6396 ft | 272 kts | 341° |
| 2026-05-06 05:44 | 26.19668 | -80.06187 | 7230 ft | 275 kts | 340° |
| 2026-05-06 05:45 | 26.21426 | -80.07016 | 7966 ft | 280 kts | 327° |
| 2026-05-06 05:45 | 26.22798 | -80.08539 | 8749 ft | 284 kts | 300° |
| 2026-05-06 05:45 | 26.23610 | -80.10541 | 9592 ft | 285 kts | 291° |
| 2026-05-06 05:45 | 26.24320 | -80.12611 | 10344 ft | 290 kts | 291° |
| 2026-05-06 05:46 | 26.25022 | -80.14768 | 10841 ft | 303 kts | 288° |
| 2026-05-06 05:46 | 26.25585 | -80.17071 | 11295 ft | 317 kts | 282° |
| 2026-05-06 05:46 | 26.25979 | -80.19498 | 12009 ft | 321 kts | 279° |
| 2026-05-06 05:46 | 26.26328 | -80.21940 | 12758 ft | 323 kts | 279° |
| 2026-05-06 05:47 | 26.26678 | -80.24419 | 13504 ft | 325 kts | 279° |
| 2026-05-06 05:47 | 26.27030 | -80.26910 | 14239 ft | 327 kts | 279° |
| 2026-05-06 05:47 | 26.27383 | -80.29398 | 14954 ft | 329 kts | 279° |
| 2026-05-06 05:47 | 26.27742 | -80.31928 | 15659 ft | 331 kts | 279° |
| 2026-05-06 05:48 | 26.28098 | -80.34431 | 16336 ft | 333 kts | 279° |
| 2026-05-06 05:48 | 26.28463 | -80.37006 | 17010 ft | 335 kts | 279° |
| 2026-05-06 05:48 | 26.28823 | -80.39547 | 17654 ft | 337 kts | 279° |
| 2026-05-06 05:48 | 26.29189 | -80.42129 | 18283 ft | 339 kts | 279° |
| 2026-05-06 05:49 | 26.29558 | -80.44737 | 18871 ft | 342 kts | 279° |
| 2026-05-06 05:49 | 26.29926 | -80.47347 | 19456 ft | 345 kts | 278° |
| 2026-05-06 05:49 | 26.30298 | -80.49983 | 20043 ft | 347 kts | 278° |
| 2026-05-06 05:49 | 26.30673 | -80.52643 | 20625 ft | 349 kts | 278° |
| 2026-05-06 05:50 | 26.31049 | -80.55318 | 21197 ft | 351 kts | 278° |
| 2026-05-06 05:50 | 26.31424 | -80.57996 | 21756 ft | 353 kts | 278° |
| 2026-05-06 05:50 | 26.31805 | -80.60705 | 22312 ft | 355 kts | 278° |
| 2026-05-06 05:50 | 26.32184 | -80.63414 | 22851 ft | 357 kts | 278° |
| 2026-05-06 05:51 | 26.32565 | -80.66142 | 23362 ft | 360 kts | 278° |
| 2026-05-06 05:51 | 26.32950 | -80.68911 | 23873 ft | 362 kts | 278° |
| 2026-05-06 05:51 | 26.33334 | -80.71674 | 24383 ft | 364 kts | 278° |
| 2026-05-06 05:51 | 26.33722 | -80.74470 | 24887 ft | 366 kts | 278° |
| 2026-05-06 05:52 | 26.34112 | -80.77277 | 25375 ft | 368 kts | 278° |
| 2026-05-06 05:52 | 26.34499 | -80.80064 | 25845 ft | 370 kts | 277° |
| 2026-05-06 05:52 | 26.34896 | -80.82932 | 26313 ft | 372 kts | 277° |
| 2026-05-06 05:52 | 26.35290 | -80.85777 | 26762 ft | 374 kts | 277° |
| 2026-05-06 05:53 | 26.35691 | -80.88631 | 27200 ft | 376 kts | 279° |
| 2026-05-06 05:53 | 26.36434 | -80.91424 | 27597 ft | 380 kts | 291° |
| 2026-05-06 05:53 | 26.37742 | -80.93988 | 28019 ft | 385 kts | 304° |
| 2026-05-06 05:53 | 26.39541 | -80.96216 | 28445 ft | 389 kts | 312° |
| 2026-05-06 05:54 | 26.41496 | -80.98287 | 28856 ft | 390 kts | 313° |
| 2026-05-06 05:54 | 26.43486 | -81.00353 | 29226 ft | 391 kts | 313° |
| 2026-05-06 05:54 | 26.45453 | -81.02399 | 29580 ft | 392 kts | 313° |
| 2026-05-06 05:54 | 26.47441 | -81.04476 | 29925 ft | 393 kts | 313° |
| 2026-05-06 05:55 | 26.49432 | -81.06565 | 30256 ft | 394 kts | 313° |
| 2026-05-06 05:55 | 26.51425 | -81.08659 | 30571 ft | 394 kts | 312° |
| 2026-05-06 05:55 | 26.53421 | -81.10761 | 30876 ft | 395 kts | 312° |
| 2026-05-06 05:55 | 26.55413 | -81.12861 | 31160 ft | 396 kts | 312° |
| 2026-05-06 05:56 | 26.57408 | -81.14964 | 31468 ft | 396 kts | 312° |
| 2026-05-06 05:56 | 26.59397 | -81.17062 | 31815 ft | 394 kts | 312° |
| 2026-05-06 05:56 | 26.61386 | -81.19160 | 32148 ft | 393 kts | 311° |
| 2026-05-06 05:56 | 26.63366 | -81.21251 | 32458 ft | 393 kts | 311° |
| 2026-05-06 05:57 | 26.65347 | -81.23350 | 32754 ft | 392 kts | 311° |
| 2026-05-06 05:57 | 26.67297 | -81.25422 | 33038 ft | 392 kts | 311° |
| 2026-05-06 05:57 | 26.69260 | -81.27509 | 33317 ft | 391 kts | 311° |
| 2026-05-06 05:57 | 26.71228 | -81.29604 | 33588 ft | 391 kts | 310° |
| 2026-05-06 05:58 | 26.73211 | -81.31715 | 33853 ft | 391 kts | 310° |
| 2026-05-06 05:58 | 26.75147 | -81.33776 | 34103 ft | 390 kts | 310° |
| 2026-05-06 05:58 | 26.77105 | -81.35863 | 34347 ft | 390 kts | 310° |
| 2026-05-06 05:58 | 26.79082 | -81.37972 | 34561 ft | 391 kts | 310° |
| 2026-05-06 05:59 | 26.81041 | -81.40062 | 34751 ft | 391 kts | 310° |
| 2026-05-06 05:59 | 26.83005 | -81.42158 | 34935 ft | 392 kts | 310° |
| 2026-05-06 05:59 | 26.84981 | -81.44267 | 35119 ft | 393 kts | 310° |
| 2026-05-06 05:59 | 26.86959 | -81.46379 | 35298 ft | 394 kts | 310° |
| 2026-05-06 06:00 | 26.88931 | -81.48485 | 35470 ft | 394 kts | 310° |
| 2026-05-06 06:00 | 26.90919 | -81.50607 | 35642 ft | 395 kts | 310° |
| 2026-05-06 06:00 | 26.92878 | -81.52698 | 35813 ft | 395 kts | 310° |
| 2026-05-06 06:00 | 26.94864 | -81.54820 | 35981 ft | 395 kts | 309° |
| 2026-05-06 06:01 | 26.96853 | -81.56949 | 36087 ft | 396 kts | 309° |
| 2026-05-06 06:01 | 26.98838 | -81.59073 | 36092 ft | 396 kts | 309° |
| 2026-05-06 06:01 | 27.02687 | -81.63197 | 36101 ft | 396 kts | 308° |
| 2026-05-06 06:02 | 27.06655 | -81.67467 | 36106 ft | 395 kts | 307° |
| 2026-05-06 06:02 | 27.10601 | -81.71726 | 36106 ft | 395 kts | 308° |
| 2026-05-06 06:03 | 27.14553 | -81.75950 | 36108 ft | 395 kts | 308° |
| 2026-05-06 06:03 | 27.18526 | -81.80213 | 36108 ft | 395 kts | 308° |
| 2026-05-06 06:04 | 27.22472 | -81.84493 | 36106 ft | 393 kts | 305° |
| 2026-05-06 06:04 | 27.25860 | -81.89168 | 36108 ft | 383 kts | 296° |
| 2026-05-06 06:05 | 27.28418 | -81.94329 | 36109 ft | 376 kts | 288° |
| 2026-05-06 06:05 | 27.30123 | -81.99786 | 36109 ft | 370 kts | 279° |
| 2026-05-06 06:06 | 27.31239 | -82.05428 | 36109 ft | 368 kts | 277° |
| 2026-05-06 06:06 | 27.32295 | -82.11028 | 36108 ft | 368 kts | 277° |
| 2026-05-06 06:07 | 27.33350 | -82.16661 | 36109 ft | 369 kts | 277° |
| 2026-05-06 06:07 | 27.34398 | -82.22287 | 36107 ft | 369 kts | 277° |
| 2026-05-06 06:08 | 27.35444 | -82.27921 | 36103 ft | 369 kts | 277° |
| 2026-05-06 06:08 | 27.36485 | -82.33536 | 36098 ft | 369 kts | 277° |
| 2026-05-06 06:09 | 27.37530 | -82.39190 | 36094 ft | 369 kts | 277° |
| 2026-05-06 06:09 | 27.38569 | -82.44825 | 36092 ft | 369 kts | 277° |
| 2026-05-06 06:10 | 27.39600 | -82.50427 | 36091 ft | 369 kts | 277° |
| 2026-05-06 06:10 | 27.40637 | -82.56074 | 36091 ft | 368 kts | 277° |
| 2026-05-06 06:11 | 27.41689 | -82.61713 | 36091 ft | 369 kts | 277° |
| 2026-05-06 06:11 | 27.42744 | -82.67351 | 36092 ft | 368 kts | 277° |
| 2026-05-06 06:12 | 27.43792 | -82.72977 | 36091 ft | 368 kts | 277° |
| 2026-05-06 06:12 | 27.44834 | -82.78585 | 36091 ft | 368 kts | 277° |
| 2026-05-06 06:13 | 27.45880 | -82.84223 | 36091 ft | 368 kts | 277° |
| 2026-05-06 06:13 | 27.46921 | -82.89851 | 36090 ft | 367 kts | 277° |
| 2026-05-06 06:14 | 27.47957 | -82.95455 | 36088 ft | 366 kts | 277° |
| 2026-05-06 06:14 | 27.48986 | -83.01040 | 36086 ft | 365 kts | 278° |
| 2026-05-06 06:15 | 27.50014 | -83.06631 | 36084 ft | 364 kts | 278° |
| 2026-05-06 06:15 | 27.51037 | -83.12195 | 36084 ft | 364 kts | 278° |
| 2026-05-06 06:16 | 27.52060 | -83.17790 | 36085 ft | 364 kts | 278° |
| 2026-05-06 06:16 | 27.53077 | -83.23362 | 36088 ft | 364 kts | 278° |
| 2026-05-06 06:17 | 27.54083 | -83.28902 | 36091 ft | 364 kts | 278° |
| 2026-05-06 06:17 | 27.55096 | -83.34481 | 36095 ft | 364 kts | 278° |
| 2026-05-06 06:18 | 27.56105 | -83.40054 | 36097 ft | 364 kts | 278° |
| 2026-05-06 06:18 | 27.57117 | -83.45655 | 36097 ft | 364 kts | 278° |
| 2026-05-06 06:19 | 27.58120 | -83.51216 | 36097 ft | 364 kts | 278° |
| 2026-05-06 06:19 | 27.59119 | -83.56771 | 36097 ft | 364 kts | 278° |
| 2026-05-06 06:20 | 27.60125 | -83.62377 | 36097 ft | 364 kts | 278° |
| 2026-05-06 06:20 | 27.61118 | -83.67937 | 36098 ft | 364 kts | 277° |
| 2026-05-06 06:21 | 27.62111 | -83.73508 | 36098 ft | 364 kts | 277° |
| 2026-05-06 06:21 | 27.63108 | -83.79112 | 36098 ft | 364 kts | 277° |
| 2026-05-06 06:22 | 27.64095 | -83.84666 | 36097 ft | 364 kts | 277° |
| 2026-05-06 06:22 | 27.65086 | -83.90259 | 36098 ft | 364 kts | 277° |
| 2026-05-06 06:23 | 27.66077 | -83.95863 | 36098 ft | 364 kts | 277° |
| 2026-05-06 06:23 | 27.67063 | -84.01456 | 36098 ft | 364 kts | 277° |
| 2026-05-06 06:24 | 27.68046 | -84.07040 | 36098 ft | 364 kts | 277° |
| 2026-05-06 06:24 | 27.69029 | -84.12642 | 36098 ft | 364 kts | 277° |
| 2026-05-06 06:25 | 27.70006 | -84.18218 | 36097 ft | 364 kts | 277° |
| 2026-05-06 06:26 | 27.71468 | -84.26589 | 36097 ft | 364 kts | 277° |
| 2026-05-06 06:26 | 27.72446 | -84.32210 | 36097 ft | 364 kts | 277° |
| 2026-05-06 06:27 | 27.73415 | -84.37792 | 36097 ft | 364 kts | 277° |
| 2026-05-06 06:27 | 27.74385 | -84.43388 | 36097 ft | 364 kts | 277° |
| 2026-05-06 06:28 | 27.75350 | -84.48974 | 36097 ft | 364 kts | 277° |
| 2026-05-06 06:28 | 27.76317 | -84.54583 | 36097 ft | 364 kts | 277° |
| 2026-05-06 06:29 | 27.77274 | -84.60149 | 36094 ft | 364 kts | 277° |
| 2026-05-06 06:29 | 27.78237 | -84.65768 | 36092 ft | 364 kts | 277° |
| 2026-05-06 06:30 | 27.79194 | -84.71370 | 36084 ft | 364 kts | 277° |
| 2026-05-06 06:30 | 27.80152 | -84.76980 | 36077 ft | 364 kts | 277° |
| 2026-05-06 06:31 | 27.81105 | -84.82583 | 36072 ft | 364 kts | 277° |
| 2026-05-06 06:31 | 27.82051 | -84.88165 | 36068 ft | 364 kts | 277° |
| 2026-05-06 06:32 | 27.82999 | -84.93767 | 36065 ft | 364 kts | 277° |
| 2026-05-06 06:32 | 27.83946 | -84.99379 | 36063 ft | 364 kts | 277° |
| 2026-05-06 06:33 | 27.84889 | -85.04980 | 36062 ft | 364 kts | 278° |
| 2026-05-06 06:33 | 27.85834 | -85.10590 | 36062 ft | 365 kts | 278° |
| 2026-05-06 06:34 | 27.86777 | -85.16202 | 36062 ft | 365 kts | 279° |
| 2026-05-06 06:34 | 27.87725 | -85.21859 | 36062 ft | 366 kts | 279° |
| 2026-05-06 06:35 | 27.88933 | -85.27425 | 36063 ft | 367 kts | 284° |
| 2026-05-06 06:35 | 27.90535 | -85.32887 | 36062 ft | 368 kts | 286° |
| 2026-05-06 06:36 | 27.92191 | -85.38377 | 36062 ft | 368 kts | 286° |
| 2026-05-06 06:36 | 27.93830 | -85.43806 | 36062 ft | 368 kts | 286° |
| 2026-05-06 06:37 | 27.95486 | -85.49293 | 36062 ft | 368 kts | 286° |
| 2026-05-06 06:37 | 27.97141 | -85.54778 | 36062 ft | 368 kts | 286° |
| 2026-05-06 06:38 | 27.98784 | -85.60239 | 36062 ft | 368 kts | 286° |
| 2026-05-06 06:38 | 28.00423 | -85.65697 | 36064 ft | 368 kts | 285° |
| 2026-05-06 06:39 | 28.02065 | -85.71189 | 36063 ft | 368 kts | 285° |
| 2026-05-06 06:39 | 28.03706 | -85.76676 | 36063 ft | 368 kts | 285° |
| 2026-05-06 06:40 | 28.05338 | -85.82140 | 36063 ft | 368 kts | 285° |
| 2026-05-06 06:40 | 28.06966 | -85.87592 | 36063 ft | 368 kts | 285° |
| 2026-05-06 06:41 | 28.08608 | -85.93102 | 36063 ft | 368 kts | 285° |
| 2026-05-06 06:41 | 28.10234 | -85.98560 | 36062 ft | 368 kts | 285° |
| 2026-05-06 06:42 | 28.11883 | -86.04025 | 36062 ft | 368 kts | 285° |
| 2026-05-06 06:42 | 28.13525 | -86.09510 | 36062 ft | 368 kts | 285° |
| 2026-05-06 06:43 | 28.15164 | -86.15023 | 36062 ft | 368 kts | 285° |
| 2026-05-06 06:43 | 28.16784 | -86.20493 | 36062 ft | 368 kts | 285° |
| 2026-05-06 06:44 | 28.18403 | -86.25972 | 36059 ft | 368 kts | 285° |
| 2026-05-06 06:44 | 28.20020 | -86.31459 | 36056 ft | 368 kts | 285° |
| 2026-05-06 06:45 | 28.21645 | -86.36983 | 36052 ft | 368 kts | 285° |
| 2026-05-06 06:45 | 28.23253 | -86.42458 | 36048 ft | 368 kts | 285° |
| 2026-05-06 06:46 | 28.24868 | -86.47965 | 36045 ft | 368 kts | 285° |
| 2026-05-06 06:46 | 28.26479 | -86.53471 | 36044 ft | 368 kts | 285° |
| 2026-05-06 06:47 | 28.28084 | -86.58965 | 36043 ft | 368 kts | 285° |
| 2026-05-06 06:47 | 28.29693 | -86.64483 | 36043 ft | 368 kts | 285° |
| 2026-05-06 06:48 | 28.31287 | -86.69976 | 36043 ft | 368 kts | 285° |
| 2026-05-06 06:48 | 28.32897 | -86.75482 | 36041 ft | 368 kts | 285° |
| 2026-05-06 06:49 | 28.34507 | -86.80978 | 36039 ft | 368 kts | 285° |
| 2026-05-06 06:49 | 28.36107 | -86.86449 | 36037 ft | 368 kts | 285° |
| 2026-05-06 06:50 | 28.37719 | -86.91973 | 36036 ft | 367 kts | 285° |
| 2026-05-06 06:50 | 28.39308 | -86.97433 | 36035 ft | 365 kts | 286° |
| 2026-05-06 06:51 | 28.40901 | -87.02914 | 36035 ft | 363 kts | 287° |
| 2026-05-06 06:51 | 28.42466 | -87.08308 | 36035 ft | 361 kts | 287° |
| 2026-05-06 06:52 | 28.44029 | -87.13698 | 36034 ft | 360 kts | 287° |
| 2026-05-06 06:52 | 28.45592 | -87.19077 | 36033 ft | 359 kts | 287° |
| 2026-05-06 06:53 | 28.47156 | -87.24486 | 36030 ft | 359 kts | 287° |
| 2026-05-06 06:53 | 28.48704 | -87.29847 | 36026 ft | 359 kts | 287° |
| 2026-05-06 06:54 | 28.50263 | -87.35260 | 36022 ft | 359 kts | 287° |
| 2026-05-06 06:54 | 28.51811 | -87.40642 | 36018 ft | 359 kts | 287° |
| 2026-05-06 06:55 | 28.53359 | -87.46031 | 36017 ft | 359 kts | 287° |
| 2026-05-06 06:55 | 28.54904 | -87.51421 | 36017 ft | 359 kts | 287° |
| 2026-05-06 06:56 | 28.56444 | -87.56804 | 36016 ft | 359 kts | 287° |
| 2026-05-06 06:56 | 28.57989 | -87.62211 | 36016 ft | 359 kts | 287° |
| 2026-05-06 06:57 | 28.59524 | -87.67603 | 36017 ft | 359 kts | 287° |
| 2026-05-06 06:57 | 28.61056 | -87.73005 | 36017 ft | 359 kts | 287° |
| 2026-05-06 06:58 | 28.62584 | -87.78389 | 36017 ft | 359 kts | 287° |
| 2026-05-06 06:58 | 28.64114 | -87.83782 | 36016 ft | 359 kts | 287° |
| 2026-05-06 06:59 | 28.65644 | -87.89181 | 36017 ft | 359 kts | 287° |
| 2026-05-06 06:59 | 28.67177 | -87.94598 | 36017 ft | 359 kts | 287° |
| 2026-05-06 07:00 | 28.68699 | -87.99985 | 36016 ft | 359 kts | 287° |
| 2026-05-06 07:00 | 28.70218 | -88.05373 | 36017 ft | 359 kts | 287° |
| 2026-05-06 07:01 | 28.71740 | -88.10786 | 36016 ft | 359 kts | 287° |
| 2026-05-06 07:01 | 28.73253 | -88.16180 | 36017 ft | 359 kts | 287° |
| 2026-05-06 07:02 | 28.74767 | -88.21581 | 36016 ft | 360 kts | 287° |
| 2026-05-06 07:02 | 28.76283 | -88.26998 | 36016 ft | 360 kts | 287° |
| 2026-05-06 07:03 | 28.77798 | -88.32422 | 36016 ft | 360 kts | 287° |
| 2026-05-06 07:03 | 28.79310 | -88.37840 | 36014 ft | 360 kts | 287° |
| 2026-05-06 07:04 | 28.80822 | -88.43266 | 36009 ft | 360 kts | 287° |
| 2026-05-06 07:04 | 28.82334 | -88.48703 | 36001 ft | 360 kts | 287° |
| 2026-05-06 07:05 | 28.83843 | -88.54137 | 35993 ft | 360 kts | 287° |
| 2026-05-06 07:05 | 28.85345 | -88.59560 | 35985 ft | 360 kts | 287° |
| 2026-05-06 07:06 | 28.87045 | -88.64893 | 35982 ft | 361 kts | 292° |
| 2026-05-06 07:06 | 28.89268 | -88.70024 | 35982 ft | 362 kts | 297° |
| 2026-05-06 07:07 | 28.91985 | -88.74835 | 35982 ft | 364 kts | 302° |
| 2026-05-06 07:07 | 28.95187 | -88.79353 | 35981 ft | 366 kts | 306° |
| 2026-05-06 07:08 | 28.98489 | -88.83770 | 35975 ft | 366 kts | 306° |
| 2026-05-06 07:08 | 29.01799 | -88.88186 | 35973 ft | 368 kts | 306° |
| 2026-05-06 07:09 | 29.05131 | -88.92626 | 35974 ft | 370 kts | 307° |
| 2026-05-06 07:09 | 29.08460 | -88.97061 | 35873 ft | 367 kts | 307° |
| 2026-05-06 07:09 | 29.10110 | -88.99260 | 35430 ft | 366 kts | 307° |
| 2026-05-06 07:10 | 29.11760 | -89.01446 | 34818 ft | 367 kts | 307° |
| 2026-05-06 07:10 | 29.13427 | -89.03650 | 34254 ft | 366 kts | 307° |
| 2026-05-06 07:10 | 29.15080 | -89.05843 | 33676 ft | 365 kts | 307° |
| 2026-05-06 07:10 | 29.16736 | -89.08046 | 33032 ft | 367 kts | 307° |
| 2026-05-06 07:11 | 29.18386 | -89.10246 | 32312 ft | 370 kts | 307° |
| 2026-05-06 07:11 | 29.20046 | -89.12465 | 31572 ft | 373 kts | 307° |
| 2026-05-06 07:11 | 29.21742 | -89.14735 | 30819 ft | 376 kts | 307° |
| 2026-05-06 07:11 | 29.23431 | -89.16991 | 30059 ft | 380 kts | 307° |
| 2026-05-06 07:12 | 29.25154 | -89.19299 | 29448 ft | 378 kts | 308° |
| 2026-05-06 07:12 | 29.26836 | -89.21551 | 28946 ft | 374 kts | 308° |
| 2026-05-06 07:12 | 29.28525 | -89.23815 | 28413 ft | 372 kts | 308° |
| 2026-05-06 07:12 | 29.30191 | -89.26049 | 27875 ft | 369 kts | 308° |
| 2026-05-06 07:13 | 29.31849 | -89.28274 | 27331 ft | 367 kts | 308° |
| 2026-05-06 07:13 | 29.33489 | -89.30476 | 26794 ft | 365 kts | 308° |
| 2026-05-06 07:13 | 29.35132 | -89.32684 | 26251 ft | 363 kts | 308° |
| 2026-05-06 07:13 | 29.36744 | -89.34852 | 25721 ft | 361 kts | 308° |
| 2026-05-06 07:14 | 29.38372 | -89.37041 | 25187 ft | 359 kts | 308° |
| 2026-05-06 07:14 | 29.39965 | -89.39185 | 24668 ft | 357 kts | 308° |
| 2026-05-06 07:14 | 29.41565 | -89.41340 | 24147 ft | 355 kts | 308° |
| 2026-05-06 07:14 | 29.43144 | -89.43469 | 23629 ft | 353 kts | 308° |
| 2026-05-06 07:15 | 29.44735 | -89.45614 | 23100 ft | 351 kts | 308° |
| 2026-05-06 07:15 | 29.46310 | -89.47739 | 22576 ft | 349 kts | 308° |
| 2026-05-06 07:15 | 29.47866 | -89.49839 | 22063 ft | 347 kts | 308° |
| 2026-05-06 07:15 | 29.49427 | -89.51947 | 21547 ft | 345 kts | 308° |
| 2026-05-06 07:16 | 29.50954 | -89.54009 | 21045 ft | 343 kts | 308° |
| 2026-05-06 07:16 | 29.52506 | -89.56106 | 20536 ft | 342 kts | 308° |
| 2026-05-06 07:16 | 29.54026 | -89.58162 | 20036 ft | 340 kts | 308° |
| 2026-05-06 07:16 | 29.55551 | -89.60226 | 19535 ft | 338 kts | 308° |
| 2026-05-06 07:17 | 29.57062 | -89.62272 | 19034 ft | 337 kts | 308° |
| 2026-05-06 07:17 | 29.58562 | -89.64304 | 18535 ft | 335 kts | 309° |
| 2026-05-06 07:17 | 29.60068 | -89.66348 | 18042 ft | 333 kts | 308° |
| 2026-05-06 07:17 | 29.61542 | -89.68360 | 17564 ft | 332 kts | 308° |
| 2026-05-06 07:18 | 29.63027 | -89.70381 | 17078 ft | 330 kts | 308° |
| 2026-05-06 07:18 | 29.64488 | -89.72369 | 16603 ft | 329 kts | 308° |
| 2026-05-06 07:18 | 29.65973 | -89.74387 | 16150 ft | 326 kts | 308° |
| 2026-05-06 07:18 | 29.67433 | -89.76372 | 15987 ft | 326 kts | 308° |
| 2026-05-06 07:19 | 29.68897 | -89.78362 | 15984 ft | 328 kts | 308° |
| 2026-05-06 07:19 | 29.70359 | -89.80351 | 15981 ft | 328 kts | 308° |
| 2026-05-06 07:19 | 29.71824 | -89.82345 | 15979 ft | 328 kts | 308° |
| 2026-05-06 07:19 | 29.73301 | -89.84355 | 15979 ft | 328 kts | 308° |
| 2026-05-06 07:20 | 29.74766 | -89.86350 | 15979 ft | 328 kts | 308° |
| 2026-05-06 07:20 | 29.76245 | -89.88366 | 15978 ft | 328 kts | 308° |
| 2026-05-06 07:20 | 29.77717 | -89.90372 | 15978 ft | 328 kts | 308° |
| 2026-05-06 07:20 | 29.79172 | -89.92355 | 15978 ft | 328 kts | 308° |
| 2026-05-06 07:21 | 29.80652 | -89.94375 | 15978 ft | 328 kts | 308° |
| 2026-05-06 07:21 | 29.82124 | -89.96385 | 15978 ft | 328 kts | 308° |
| 2026-05-06 07:21 | 29.83585 | -89.98389 | 15977 ft | 328 kts | 307° |
| 2026-05-06 07:21 | 29.84905 | -90.00522 | 15976 ft | 327 kts | 301° |
| 2026-05-06 07:22 | 29.85985 | -90.02819 | 15977 ft | 326 kts | 295° |
| 2026-05-06 07:22 | 29.86942 | -90.05199 | 15978 ft | 326 kts | 294° |
| 2026-05-06 07:22 | 29.87875 | -90.07577 | 15978 ft | 326 kts | 294° |
| 2026-05-06 07:22 | 29.88797 | -90.09933 | 15978 ft | 327 kts | 294° |
| 2026-05-06 07:23 | 29.89722 | -90.12293 | 15972 ft | 315 kts | 294° |
| 2026-05-06 07:23 | 29.90608 | -90.14548 | 15969 ft | 299 kts | 294° |
| 2026-05-06 07:23 | 29.91451 | -90.16695 | 15973 ft | 296 kts | 294° |
| 2026-05-06 07:23 | 29.92296 | -90.18846 | 15973 ft | 295 kts | 294° |
| 2026-05-06 07:24 | 29.93144 | -90.21007 | 15973 ft | 295 kts | 294° |
| 2026-05-06 07:24 | 29.93990 | -90.23166 | 15972 ft | 295 kts | 294° |
| 2026-05-06 07:24 | 29.94839 | -90.25330 | 15971 ft | 295 kts | 294° |
| 2026-05-06 07:24 | 29.95680 | -90.27477 | 15971 ft | 295 kts | 294° |
| 2026-05-06 07:25 | 29.96529 | -90.29642 | 15971 ft | 295 kts | 294° |
| 2026-05-06 07:25 | 29.97363 | -90.31773 | 15971 ft | 295 kts | 294° |
| 2026-05-06 07:25 | 29.98217 | -90.33956 | 15971 ft | 295 kts | 294° |
| 2026-05-06 07:25 | 29.99054 | -90.36095 | 15972 ft | 295 kts | 294° |
| 2026-05-06 07:26 | 29.99902 | -90.38263 | 15972 ft | 295 kts | 294° |
| 2026-05-06 07:26 | 30.00745 | -90.40420 | 15973 ft | 295 kts | 294° |
| 2026-05-06 07:26 | 30.01583 | -90.42567 | 15974 ft | 295 kts | 294° |
| 2026-05-06 07:26 | 30.02422 | -90.44718 | 15975 ft | 295 kts | 294° |
| 2026-05-06 07:27 | 30.03262 | -90.46874 | 15976 ft | 295 kts | 294° |
| 2026-05-06 07:27 | 30.04111 | -90.49041 | 15976 ft | 295 kts | 296° |
| 2026-05-06 07:27 | 30.05328 | -90.50904 | 15954 ft | 299 kts | 321° |
| 2026-05-06 07:27 | 30.07272 | -90.51836 | 15964 ft | 309 kts | 351° |
| 2026-05-06 07:28 | 30.09410 | -90.51485 | 15965 ft | 321 kts | 21° |
| 2026-05-06 07:28 | 30.11179 | -90.49913 | 15969 ft | 332 kts | 50° |
| 2026-05-06 07:28 | 30.12030 | -90.44786 | 15975 ft | 336 kts | 108° |
| 2026-05-06 07:29 | 30.10923 | -90.42542 | 15973 ft | 316 kts | 139° |
| 2026-05-06 07:29 | 30.09142 | -90.41273 | 15971 ft | 290 kts | 171° |
| 2026-05-06 07:29 | 30.07207 | -90.41262 | 15981 ft | 274 kts | 202° |
| 2026-05-06 07:29 | 30.05475 | -90.42076 | 15989 ft | 270 kts | 212° |
| 2026-05-06 07:30 | 30.03811 | -90.43085 | 15983 ft | 269 kts | 213° |
| 2026-05-06 07:30 | 30.02181 | -90.44123 | 15980 ft | 269 kts | 214° |
| 2026-05-06 07:30 | 30.00544 | -90.45176 | 15978 ft | 269 kts | 214° |
| 2026-05-06 07:30 | 29.98922 | -90.46222 | 15978 ft | 269 kts | 214° |
| 2026-05-06 07:31 | 29.97279 | -90.47282 | 15978 ft | 269 kts | 214° |
| 2026-05-06 07:31 | 29.95675 | -90.48318 | 15978 ft | 269 kts | 214° |
| 2026-05-06 07:31 | 29.94038 | -90.49376 | 15885 ft | 264 kts | 216° |
| 2026-05-06 07:31 | 29.92705 | -90.50710 | 15481 ft | 257 kts | 241° |
| 2026-05-06 07:32 | 29.92069 | -90.52587 | 15066 ft | 251 kts | 262° |
| 2026-05-06 07:32 | 29.91836 | -90.54583 | 14729 ft | 249 kts | 266° |
| 2026-05-06 07:32 | 29.91691 | -90.56558 | 14375 ft | 249 kts | 267° |
| 2026-05-06 07:32 | 29.91565 | -90.58552 | 14020 ft | 248 kts | 268° |
| 2026-05-06 07:33 | 29.91447 | -90.60508 | 13677 ft | 247 kts | 268° |
| 2026-05-06 07:33 | 29.91329 | -90.62503 | 13327 ft | 247 kts | 268° |
| 2026-05-06 07:33 | 29.91217 | -90.64450 | 12985 ft | 246 kts | 268° |
| 2026-05-06 07:33 | 29.91106 | -90.66414 | 12643 ft | 245 kts | 267° |
| 2026-05-06 07:34 | 29.90996 | -90.68388 | 12302 ft | 245 kts | 267° |
| 2026-05-06 07:34 | 29.90891 | -90.70324 | 11970 ft | 244 kts | 267° |
| 2026-05-06 07:34 | 29.90788 | -90.72276 | 11642 ft | 243 kts | 267° |
| 2026-05-06 07:34 | 29.90692 | -90.74233 | 11320 ft | 242 kts | 267° |
| 2026-05-06 07:35 | 29.90605 | -90.76163 | 11003 ft | 241 kts | 267° |
| 2026-05-06 07:35 | 29.90526 | -90.78075 | 10685 ft | 240 kts | 267° |
| 2026-05-06 07:35 | 29.90453 | -90.80000 | 10364 ft | 239 kts | 267° |
| 2026-05-06 07:35 | 29.90389 | -90.81915 | 10042 ft | 238 kts | 267° |
| 2026-05-06 07:36 | 29.90332 | -90.83800 | 9722 ft | 237 kts | 267° |
| 2026-05-06 07:36 | 29.90282 | -90.85693 | 9400 ft | 236 kts | 268° |
| 2026-05-06 07:36 | 29.90238 | -90.87601 | 9072 ft | 236 kts | 268° |
| 2026-05-06 07:36 | 29.90201 | -90.89477 | 8751 ft | 235 kts | 268° |
| 2026-05-06 07:37 | 29.90170 | -90.91339 | 8432 ft | 234 kts | 268° |
| 2026-05-06 07:37 | 29.90144 | -90.93219 | 8108 ft | 234 kts | 268° |
| 2026-05-06 07:37 | 29.90188 | -90.95075 | 7735 ft | 237 kts | 276° |
| 2026-05-06 07:37 | 29.90928 | -90.96861 | 6886 ft | 262 kts | 315° |
| 2026-05-06 07:38 | 29.92499 | -90.97913 | 6642 ft | 259 kts | 341° |
| 2026-05-06 07:38 | 29.94251 | -90.98110 | 6452 ft | 254 kts | 10° |
| 2026-05-06 07:38 | 29.95816 | -90.97303 | 6248 ft | 248 kts | 42° |
| 2026-05-06 07:38 | 29.96814 | -90.95715 | 5941 ft | 243 kts | 73° |
| 2026-05-06 07:39 | 29.97142 | -90.93832 | 5644 ft | 240 kts | 85° |
| 2026-05-06 07:39 | 29.97313 | -90.91934 | 5338 ft | 239 kts | 86° |
| 2026-05-06 07:39 | 29.97473 | -90.90032 | 5044 ft | 237 kts | 86° |
| 2026-05-06 07:39 | 29.97639 | -90.88148 | 4759 ft | 236 kts | 86° |
| 2026-05-06 07:40 | 29.97811 | -90.86284 | 4475 ft | 234 kts | 86° |
| 2026-05-06 07:40 | 29.97989 | -90.84416 | 4190 ft | 233 kts | 86° |
| 2026-05-06 07:40 | 29.98168 | -90.82568 | 3998 ft | 229 kts | 86° |
| 2026-05-06 07:40 | 29.98346 | -90.80751 | 3984 ft | 231 kts | 85° |
| 2026-05-06 07:41 | 29.98528 | -90.78897 | 3979 ft | 231 kts | 85° |
| 2026-05-06 07:41 | 29.98711 | -90.77048 | 3977 ft | 231 kts | 85° |
| 2026-05-06 07:41 | 29.98891 | -90.75221 | 3977 ft | 231 kts | 85° |
| 2026-05-06 07:41 | 29.99074 | -90.73367 | 3976 ft | 231 kts | 85° |
| 2026-05-06 07:42 | 29.99257 | -90.71512 | 3976 ft | 231 kts | 85° |
| 2026-05-06 07:42 | 29.99437 | -90.69682 | 3976 ft | 231 kts | 85° |
| 2026-05-06 07:42 | 29.99620 | -90.67828 | 3977 ft | 231 kts | 85° |
| 2026-05-06 07:42 | 29.99799 | -90.66003 | 3977 ft | 231 kts | 85° |
| 2026-05-06 07:43 | 29.99981 | -90.64141 | 3977 ft | 231 kts | 85° |
| 2026-05-06 07:43 | 30.00161 | -90.62319 | 3977 ft | 231 kts | 85° |
| 2026-05-06 07:43 | 30.00345 | -90.60467 | 3977 ft | 231 kts | 85° |
| 2026-05-06 07:43 | 30.00527 | -90.58617 | 3977 ft | 231 kts | 85° |
| 2026-05-06 07:44 | 30.00709 | -90.56767 | 3977 ft | 231 kts | 85° |
| 2026-05-06 07:44 | 30.00887 | -90.54936 | 3977 ft | 231 kts | 85° |
| 2026-05-06 07:44 | 30.01068 | -90.53078 | 3977 ft | 231 kts | 85° |
| 2026-05-06 07:44 | 30.01245 | -90.51255 | 3936 ft | 228 kts | 85° |
| 2026-05-06 07:45 | 30.01421 | -90.49452 | 3704 ft | 218 kts | 85° |
| 2026-05-06 07:45 | 30.01586 | -90.47751 | 3488 ft | 205 kts | 85° |
| 2026-05-06 07:45 | 30.01739 | -90.46195 | 3314 ft | 190 kts | 86° |
| 2026-05-06 07:45 | 30.01881 | -90.44729 | 3083 ft | 178 kts | 86° |
| 2026-05-06 07:46 | 30.02014 | -90.43356 | 2859 ft | 167 kts | 86° |
| 2026-05-06 07:46 | 30.02137 | -90.42075 | 2617 ft | 159 kts | 86° |
| 2026-05-06 07:46 | 30.02258 | -90.40807 | 2285 ft | 156 kts | 86° |
| 2026-05-06 07:46 | 30.02344 | -90.39728 | 2092 ft | 152 kts | 92° |
| 2026-05-06 07:47 | 30.02194 | -90.38552 | 2012 ft | 144 kts | 106° |
| 2026-05-06 07:47 | 30.01926 | -90.37428 | 1836 ft | 144 kts | 108° |
| 2026-05-06 07:47 | 30.01654 | -90.36353 | 1505 ft | 141 kts | 108° |
| 2026-05-06 07:47 | 30.01379 | -90.35260 | 1115 ft | 139 kts | 108° |
| 2026-05-06 07:48 | 30.01105 | -90.34150 | 1016 ft | 146 kts | 108° |
| 2026-05-06 07:48 | 30.00843 | -90.33059 | 981 ft | 133 kts | 108° |
| 2026-05-06 07:48 | 30.00614 | -90.32027 | 651 ft | 134 kts | 105° |
| 2026-05-06 07:48 | 30.00386 | -90.30977 | 468 ft | 132 kts | 108° |
| 2026-05-06 07:49 | 30.00112 | -90.29978 | 268 ft | 134 kts | 110° |
| 2026-05-06 07:49 | 29.99847 | -90.28928 | 225 ft | 131 kts | 108° |
| 2026-05-06 07:49 | 29.99613 | -90.27954 | 30 ft | 118 kts | 108° |
| 2026-05-06 07:49 | 29.99409 | -90.27119 | 12 ft | 96 kts | 106° |
| 2026-05-06 07:50 | 29.99254 | -90.26488 | 12 ft | 65 kts | 105° |
| 2026-05-06 07:50 | 29.99158 | -90.26076 | 12 ft | 40 kts | 105° |
| 2026-05-06 07:50 | 29.99096 | -90.25792 | 12 ft | 31 kts | 105° |
| 2026-05-06 07:50 | 29.99142 | -90.25639 | 12 ft | 20 kts | 14° |
| 2026-05-06 07:51 | 29.99221 | -90.25564 | 12 ft | 11 kts | 30° |
| 2026-05-06 07:51 | 29.99317 | -90.25553 | 12 ft | 16 kts | 5° |
| 2026-05-06 07:51 | 29.99378 | -90.25600 | 12 ft | 3 kts | 262° |
| 2026-05-06 07:51 | 29.99389 | -90.25627 | 12 ft | 0 kts | 290° |
| 2026-05-06 07:52 | 29.99389 | -90.25628 | 12 ft | 0 kts | 283° |